Main page
METAR-TAF:

METAR-TAF

Airports :

El Embrujo Airport

Providencia Island, Colombia

latitude: 13-22N, longitude: 081-21W, elevation: 6 m

Current weather observation

The report was made 40 minutes ago, at 23:00 UTC
Wind 14 kt from the East, varying between North and East/Southeast
Temperature 30°C
Humidity 79%
Pressure 1009 hPa
Visibility 10 km or more
Few clouds at a height of 1700 ft

METAR: SKPV 232300Z 10014KT 350V120 9999 FEW017 30/26 Q1009

Time: 18:40 (23:40 UTC)


TAF: missing

Weather observations and forecasts of more than 4000 airports (METAR and TAF reports).

The available stations are represented by yellow and red dots on the map.

Hover mouse over dot to see the name of the station.

Then click to see weather observations and forecasts.

To change the map : click on the green buttons with a black cross to zoom in, on the green button with a dash to zoom out, or on the green arrows for adjacent maps.


METAR-TAF: